sensor_id;sensor_type;location;lat;lon;timestamp;P1;durP1;ratioP1;P2;durP2;ratioP2
76063;SDS011;64762;52.006;8.424;2024-01-30T00:02:24;10.10;;;5.10;;
76063;SDS011;64762;52.006;8.424;2024-01-30T00:04:49;12.27;;;5.67;;
76063;SDS011;64762;52.006;8.424;2024-01-30T00:07:14;11.20;;;5.73;;
76063;SDS011;64762;52.006;8.424;2024-01-30T00:09:40;13.33;;;5.53;;
76063;SDS011;64762;52.006;8.424;2024-01-30T00:12:05;14.60;;;5.63;;
76063;SDS011;64762;52.006;8.424;2024-01-30T00:14:31;9.77;;;5.40;;
76063;SDS011;64762;52.006;8.424;2024-01-30T00:16:56;12.07;;;5.20;;
76063;SDS011;64762;52.006;8.424;2024-01-30T00:19:22;14.07;;;5.57;;
76063;SDS011;64762;52.006;8.424;2024-01-30T00:21:47;13.07;;;6.00;;
76063;SDS011;64762;52.006;8.424;2024-01-30T00:24:12;11.60;;;5.53;;
76063;SDS011;64762;52.006;8.424;2024-01-30T00:26:38;16.43;;;6.37;;
76063;SDS011;64762;52.006;8.424;2024-01-30T00:29:03;13.53;;;5.80;;
76063;SDS011;64762;52.006;8.424;2024-01-30T00:31:28;11.50;;;5.53;;
76063;SDS011;64762;52.006;8.424;2024-01-30T00:33:54;12.07;;;5.35;;
76063;SDS011;64762;52.006;8.424;2024-01-30T00:36:19;13.33;;;5.47;;
76063;SDS011;64762;52.006;8.424;2024-01-30T00:38:45;12.13;;;5.93;;
76063;SDS011;64762;52.006;8.424;2024-01-30T00:41:10;15.97;;;6.03;;
76063;SDS011;64762;52.006;8.424;2024-01-30T00:43:35;9.70;;;5.53;;
76063;SDS011;64762;52.006;8.424;2024-01-30T00:46:01;11.77;;;5.40;;
76063;SDS011;64762;52.006;8.424;2024-01-30T00:48:26;9.53;;;5.50;;
76063;SDS011;64762;52.006;8.424;2024-01-30T00:50:51;14.43;;;5.90;;
76063;SDS011;64762;52.006;8.424;2024-01-30T00:53:17;15.77;;;6.33;;
76063;SDS011;64762;52.006;8.424;2024-01-30T00:55:42;11.30;;;5.43;;
76063;SDS011;64762;52.006;8.424;2024-01-30T00:58:08;10.77;;;5.50;;
76063;SDS011;64762;52.006;8.424;2024-01-30T01:00:33;14.93;;;5.70;;
76063;SDS011;64762;52.006;8.424;2024-01-30T01:02:58;11.13;;;5.70;;
76063;SDS011;64762;52.006;8.424;2024-01-30T01:05:24;15.73;;;6.25;;
76063;SDS011;64762;52.006;8.424;2024-01-30T01:07:49;13.45;;;6.10;;
76063;SDS011;64762;52.006;8.424;2024-01-30T01:10:16;15.97;;;6.60;;
76063;SDS011;64762;52.006;8.424;2024-01-30T01:12:42;11.30;;;5.50;;
76063;SDS011;64762;52.006;8.424;2024-01-30T01:15:07;13.30;;;5.97;;
76063;SDS011;64762;52.006;8.424;2024-01-30T01:17:34;15.25;;;6.43;;
76063;SDS011;64762;52.006;8.424;2024-01-30T01:20:00;14.73;;;5.72;;
76063;SDS011;64762;52.006;8.424;2024-01-30T01:22:25;12.33;;;6.20;;
76063;SDS011;64762;52.006;8.424;2024-01-30T01:24:51;15.57;;;6.10;;
76063;SDS011;64762;52.006;8.424;2024-01-30T01:27:16;13.80;;;6.27;;
76063;SDS011;64762;52.006;8.424;2024-01-30T01:29:41;13.40;;;5.17;;
76063;SDS011;64762;52.006;8.424;2024-01-30T01:32:07;12.73;;;5.53;;
76063;SDS011;64762;52.006;8.424;2024-01-30T01:34:32;11.83;;;5.73;;
76063;SDS011;64762;52.006;8.424;2024-01-30T01:36:57;12.97;;;6.20;;
76063;SDS011;64762;52.006;8.424;2024-01-30T01:39:22;12.77;;;5.53;;
76063;SDS011;64762;52.006;8.424;2024-01-30T01:41:48;11.93;;;5.63;;
76063;SDS011;64762;52.006;8.424;2024-01-30T01:44:14;11.37;;;5.33;;
76063;SDS011;64762;52.006;8.424;2024-01-30T01:46:39;15.43;;;6.27;;
76063;SDS011;64762;52.006;8.424;2024-01-30T01:49:05;12.02;;;5.25;;
76063;SDS011;64762;52.006;8.424;2024-01-30T01:51:31;13.75;;;6.43;;
76063;SDS011;64762;52.006;8.424;2024-01-30T01:53:59;10.20;;;5.75;;
76063;SDS011;64762;52.006;8.424;2024-01-30T01:56:27;14.35;;;6.10;;
76063;SDS011;64762;52.006;8.424;2024-01-30T01:58:54;11.20;;;5.53;;
76063;SDS011;64762;52.006;8.424;2024-01-30T02:01:19;13.95;;;6.00;;
76063;SDS011;64762;52.006;8.424;2024-01-30T02:03:45;11.10;;;5.28;;
76063;SDS011;64762;52.006;8.424;2024-01-30T02:06:11;12.00;;;5.47;;
76063;SDS011;64762;52.006;8.424;2024-01-30T02:08:37;11.73;;;5.30;;
76063;SDS011;64762;52.006;8.424;2024-01-30T02:11:02;11.50;;;5.20;;
76063;SDS011;64762;52.006;8.424;2024-01-30T02:13:28;11.97;;;5.10;;
76063;SDS011;64762;52.006;8.424;2024-01-30T02:15:53;12.53;;;5.47;;
76063;SDS011;64762;52.006;8.424;2024-01-30T02:18:19;10.00;;;5.67;;
76063;SDS011;64762;52.006;8.424;2024-01-30T02:20:46;15.95;;;6.40;;
76063;SDS011;64762;52.006;8.424;2024-01-30T02:23:11;12.17;;;6.17;;
76063;SDS011;64762;52.006;8.424;2024-01-30T02:25:38;11.00;;;5.40;;
76063;SDS011;64762;52.006;8.424;2024-01-30T02:28:19;11.45;;;5.72;;
76063;SDS011;64762;52.006;8.424;2024-01-30T02:30:45;18.15;;;5.72;;
76063;SDS011;64762;52.006;8.424;2024-01-30T02:33:11;12.35;;;5.45;;
76063;SDS011;64762;52.006;8.424;2024-01-30T02:35:37;15.30;;;6.57;;
76063;SDS011;64762;52.006;8.424;2024-01-30T02:38:02;14.40;;;6.10;;
76063;SDS011;64762;52.006;8.424;2024-01-30T02:40:28;9.77;;;5.38;;
76063;SDS011;64762;52.006;8.424;2024-01-30T02:42:53;12.07;;;5.77;;
76063;SDS011;64762;52.006;8.424;2024-01-30T02:45:18;13.30;;;6.20;;
76063;SDS011;64762;52.006;8.424;2024-01-30T02:47:44;15.53;;;6.17;;
76063;SDS011;64762;52.006;8.424;2024-01-30T02:50:09;12.40;;;5.47;;
76063;SDS011;64762;52.006;8.424;2024-01-30T02:52:35;16.33;;;6.75;;
76063;SDS011;64762;52.006;8.424;2024-01-30T02:55:00;14.00;;;6.55;;
76063;SDS011;64762;52.006;8.424;2024-01-30T02:57:26;14.35;;;5.88;;
76063;SDS011;64762;52.006;8.424;2024-01-30T02:59:52;10.98;;;5.93;;
76063;SDS011;64762;52.006;8.424;2024-01-30T03:02:17;14.23;;;6.20;;
76063;SDS011;64762;52.006;8.424;2024-01-30T03:04:43;14.27;;;6.07;;
76063;SDS011;64762;52.006;8.424;2024-01-30T03:07:08;16.13;;;7.07;;
76063;SDS011;64762;52.006;8.424;2024-01-30T03:09:33;13.53;;;6.37;;
76063;SDS011;64762;52.006;8.424;2024-01-30T03:11:59;14.07;;;6.57;;
76063;SDS011;64762;52.006;8.424;2024-01-30T03:14:24;15.57;;;6.33;;
76063;SDS011;64762;52.006;8.424;2024-01-30T03:16:49;13.23;;;6.00;;
76063;SDS011;64762;52.006;8.424;2024-01-30T03:19:14;13.07;;;5.43;;
76063;SDS011;64762;52.006;8.424;2024-01-30T03:21:40;12.13;;;5.33;;
76063;SDS011;64762;52.006;8.424;2024-01-30T03:24:05;13.00;;;5.83;;
76063;SDS011;64762;52.006;8.424;2024-01-30T03:26:30;13.50;;;5.75;;
76063;SDS011;64762;52.006;8.424;2024-01-30T03:28:56;14.70;;;6.20;;
76063;SDS011;64762;52.006;8.424;2024-01-30T03:31:21;14.47;;;5.43;;
76063;SDS011;64762;52.006;8.424;2024-01-30T03:33:46;10.63;;;5.67;;
76063;SDS011;64762;52.006;8.424;2024-01-30T03:36:12;15.07;;;6.00;;
76063;SDS011;64762;52.006;8.424;2024-01-30T03:38:37;12.07;;;5.60;;
76063;SDS011;64762;52.006;8.424;2024-01-30T03:41:02;13.93;;;6.17;;
76063;SDS011;64762;52.006;8.424;2024-01-30T03:43:28;13.30;;;6.53;;
76063;SDS011;64762;52.006;8.424;2024-01-30T03:45:53;15.90;;;6.00;;
76063;SDS011;64762;52.006;8.424;2024-01-30T03:48:18;14.60;;;6.77;;
76063;SDS011;64762;52.006;8.424;2024-01-30T03:50:44;14.15;;;6.00;;
76063;SDS011;64762;52.006;8.424;2024-01-30T03:53:10;14.23;;;7.07;;
76063;SDS011;64762;52.006;8.424;2024-01-30T03:55:35;13.48;;;5.28;;
76063;SDS011;64762;52.006;8.424;2024-01-30T03:58:01;15.90;;;6.10;;
76063;SDS011;64762;52.006;8.424;2024-01-30T04:00:26;14.07;;;5.83;;
76063;SDS011;64762;52.006;8.424;2024-01-30T04:02:51;12.27;;;6.10;;
76063;SDS011;64762;52.006;8.424;2024-01-30T04:05:16;15.40;;;6.27;;
76063;SDS011;64762;52.006;8.424;2024-01-30T04:07:42;15.23;;;6.03;;
76063;SDS011;64762;52.006;8.424;2024-01-30T04:10:07;12.05;;;5.47;;
76063;SDS011;64762;52.006;8.424;2024-01-30T04:12:34;14.20;;;6.13;;
76063;SDS011;64762;52.006;8.424;2024-01-30T04:15:00;11.88;;;5.88;;
76063;SDS011;64762;52.006;8.424;2024-01-30T04:17:25;13.23;;;6.00;;
76063;SDS011;64762;52.006;8.424;2024-01-30T04:19:50;14.73;;;6.57;;
76063;SDS011;64762;52.006;8.424;2024-01-30T04:22:16;13.57;;;6.60;;
76063;SDS011;64762;52.006;8.424;2024-01-30T04:24:41;13.63;;;6.23;;
76063;SDS011;64762;52.006;8.424;2024-01-30T04:27:06;13.83;;;5.90;;
76063;SDS011;64762;52.006;8.424;2024-01-30T04:29:31;10.97;;;5.50;;
76063;SDS011;64762;52.006;8.424;2024-01-30T04:31:59;13.15;;;6.45;;
76063;SDS011;64762;52.006;8.424;2024-01-30T04:34:24;13.65;;;5.70;;
76063;SDS011;64762;52.006;8.424;2024-01-30T04:36:50;12.77;;;6.27;;
76063;SDS011;64762;52.006;8.424;2024-01-30T04:39:15;13.93;;;5.43;;
76063;SDS011;64762;52.006;8.424;2024-01-30T04:41:40;11.73;;;5.40;;
76063;SDS011;64762;52.006;8.424;2024-01-30T04:44:05;13.70;;;5.90;;
76063;SDS011;64762;52.006;8.424;2024-01-30T04:46:31;14.07;;;6.70;;
76063;SDS011;64762;52.006;8.424;2024-01-30T04:48:59;13.48;;;6.25;;
76063;SDS011;64762;52.006;8.424;2024-01-30T04:51:24;12.03;;;6.47;;
76063;SDS011;64762;52.006;8.424;2024-01-30T04:53:49;13.17;;;5.43;;
76063;SDS011;64762;52.006;8.424;2024-01-30T04:56:14;12.77;;;6.30;;
76063;SDS011;64762;52.006;8.424;2024-01-30T04:58:40;15.73;;;7.37;;
76063;SDS011;64762;52.006;8.424;2024-01-30T05:01:05;11.87;;;5.90;;
76063;SDS011;64762;52.006;8.424;2024-01-30T05:03:33;14.13;;;5.97;;
76063;SDS011;64762;52.006;8.424;2024-01-30T05:05:59;14.00;;;6.25;;
76063;SDS011;64762;52.006;8.424;2024-01-30T05:08:24;12.10;;;6.03;;
76063;SDS011;64762;52.006;8.424;2024-01-30T05:10:49;13.93;;;5.87;;
76063;SDS011;64762;52.006;8.424;2024-01-30T05:13:15;15.63;;;6.90;;
76063;SDS011;64762;52.006;8.424;2024-01-30T05:15:40;15.17;;;6.63;;
76063;SDS011;64762;52.006;8.424;2024-01-30T05:18:05;12.47;;;6.30;;
76063;SDS011;64762;52.006;8.424;2024-01-30T05:20:31;14.30;;;6.50;;
76063;SDS011;64762;52.006;8.424;2024-01-30T05:22:56;13.13;;;6.17;;
76063;SDS011;64762;52.006;8.424;2024-01-30T05:25:21;15.23;;;6.53;;
76063;SDS011;64762;52.006;8.424;2024-01-30T05:27:46;12.97;;;6.10;;
76063;SDS011;64762;52.006;8.424;2024-01-30T05:30:12;13.68;;;6.55;;
76063;SDS011;64762;52.006;8.424;2024-01-30T05:32:38;16.25;;;6.50;;
76063;SDS011;64762;52.006;8.424;2024-01-30T05:35:03;18.70;;;5.77;;
76063;SDS011;64762;52.006;8.424;2024-01-30T05:37:29;18.88;;;6.38;;
76063;SDS011;64762;52.006;8.424;2024-01-30T05:39:54;15.20;;;6.27;;
76063;SDS011;64762;52.006;8.424;2024-01-30T05:42:19;12.40;;;5.97;;
76063;SDS011;64762;52.006;8.424;2024-01-30T05:44:45;12.93;;;6.33;;
76063;SDS011;64762;52.006;8.424;2024-01-30T05:47:10;13.30;;;6.30;;
76063;SDS011;64762;52.006;8.424;2024-01-30T05:49:35;13.80;;;6.20;;
76063;SDS011;64762;52.006;8.424;2024-01-30T05:52:02;15.68;;;7.18;;
76063;SDS011;64762;52.006;8.424;2024-01-30T05:54:28;12.20;;;6.18;;
76063;SDS011;64762;52.006;8.424;2024-01-30T05:56:54;18.17;;;6.53;;
76063;SDS011;64762;52.006;8.424;2024-01-30T05:59:19;15.50;;;6.27;;
76063;SDS011;64762;52.006;8.424;2024-01-30T06:01:48;10.63;;;5.10;;
76063;SDS011;64762;52.006;8.424;2024-01-30T06:04:13;16.40;;;5.90;;
76063;SDS011;64762;52.006;8.424;2024-01-30T06:06:39;14.57;;;5.72;;
76063;SDS011;64762;52.006;8.424;2024-01-30T06:09:05;11.37;;;5.90;;
76063;SDS011;64762;52.006;8.424;2024-01-30T06:11:30;14.25;;;6.80;;
76063;SDS011;64762;52.006;8.424;2024-01-30T06:13:55;12.93;;;6.43;;
76063;SDS011;64762;52.006;8.424;2024-01-30T06:16:21;14.03;;;5.63;;
76063;SDS011;64762;52.006;8.424;2024-01-30T06:18:47;14.70;;;6.85;;
76063;SDS011;64762;52.006;8.424;2024-01-30T06:21:12;13.30;;;6.20;;
76063;SDS011;64762;52.006;8.424;2024-01-30T06:23:38;15.43;;;6.60;;
76063;SDS011;64762;52.006;8.424;2024-01-30T06:26:03;26.20;;;10.77;;
76063;SDS011;64762;52.006;8.424;2024-01-30T06:28:29;20.52;;;9.07;;
76063;SDS011;64762;52.006;8.424;2024-01-30T06:30:55;15.48;;;7.03;;
76063;SDS011;64762;52.006;8.424;2024-01-30T06:33:20;14.82;;;8.48;;
76063;SDS011;64762;52.006;8.424;2024-01-30T06:35:46;14.23;;;8.17;;
76063;SDS011;64762;52.006;8.424;2024-01-30T06:38:11;18.70;;;7.67;;
76063;SDS011;64762;52.006;8.424;2024-01-30T06:40:38;14.05;;;7.05;;
76063;SDS011;64762;52.006;8.424;2024-01-30T06:43:04;19.37;;;8.00;;
76063;SDS011;64762;52.006;8.424;2024-01-30T06:45:29;13.88;;;7.03;;
76063;SDS011;64762;52.006;8.424;2024-01-30T06:47:55;21.57;;;8.33;;
76063;SDS011;64762;52.006;8.424;2024-01-30T06:50:20;15.87;;;6.87;;
76063;SDS011;64762;52.006;8.424;2024-01-30T06:52:45;15.87;;;7.93;;
76063;SDS011;64762;52.006;8.424;2024-01-30T06:55:11;19.37;;;7.60;;
76063;SDS011;64762;52.006;8.424;2024-01-30T06:57:36;15.20;;;7.00;;
76063;SDS011;64762;52.006;8.424;2024-01-30T07:00:02;16.93;;;6.97;;
76063;SDS011;64762;52.006;8.424;2024-01-30T07:02:27;17.83;;;7.13;;
76063;SDS011;64762;52.006;8.424;2024-01-30T07:04:53;13.77;;;6.95;;
76063;SDS011;64762;52.006;8.424;2024-01-30T07:07:18;15.30;;;6.57;;
76063;SDS011;64762;52.006;8.424;2024-01-30T07:09:43;21.90;;;7.93;;
76063;SDS011;64762;52.006;8.424;2024-01-30T07:12:09;15.65;;;7.32;;
76063;SDS011;64762;52.006;8.424;2024-01-30T07:14:34;13.80;;;6.73;;
76063;SDS011;64762;52.006;8.424;2024-01-30T07:17:00;14.35;;;6.97;;
76063;SDS011;64762;52.006;8.424;2024-01-30T07:19:25;18.55;;;7.53;;
76063;SDS011;64762;52.006;8.424;2024-01-30T07:21:53;20.27;;;8.57;;
76063;SDS011;64762;52.006;8.424;2024-01-30T07:24:18;16.83;;;7.25;;
76063;SDS011;64762;52.006;8.424;2024-01-30T07:26:44;22.07;;;9.63;;
76063;SDS011;64762;52.006;8.424;2024-01-30T07:29:09;19.08;;;9.05;;
76063;SDS011;64762;52.006;8.424;2024-01-30T07:31:34;25.33;;;11.97;;
76063;SDS011;64762;52.006;8.424;2024-01-30T07:34:00;33.67;;;14.23;;
76063;SDS011;64762;52.006;8.424;2024-01-30T07:36:25;31.70;;;13.77;;
76063;SDS011;64762;52.006;8.424;2024-01-30T07:38:51;31.75;;;13.27;;
76063;SDS011;64762;52.006;8.424;2024-01-30T07:41:19;39.47;;;15.13;;
76063;SDS011;64762;52.006;8.424;2024-01-30T07:43:44;29.67;;;12.60;;
76063;SDS011;64762;52.006;8.424;2024-01-30T07:46:09;31.87;;;12.80;;
76063;SDS011;64762;52.006;8.424;2024-01-30T07:48:35;23.23;;;11.37;;
76063;SDS011;64762;52.006;8.424;2024-01-30T07:51:00;24.40;;;10.50;;
76063;SDS011;64762;52.006;8.424;2024-01-30T07:53:25;22.95;;;8.82;;
76063;SDS011;64762;52.006;8.424;2024-01-30T07:55:51;17.63;;;7.73;;
76063;SDS011;64762;52.006;8.424;2024-01-30T07:58:17;19.25;;;7.93;;
76063;SDS011;64762;52.006;8.424;2024-01-30T08:00:42;15.33;;;6.57;;
76063;SDS011;64762;52.006;8.424;2024-01-30T08:03:07;15.30;;;6.80;;
76063;SDS011;64762;52.006;8.424;2024-01-30T08:05:33;12.77;;;6.73;;
76063;SDS011;64762;52.006;8.424;2024-01-30T08:07:58;13.80;;;6.93;;
76063;SDS011;64762;52.006;8.424;2024-01-30T08:10:23;24.07;;;6.43;;
76063;SDS011;64762;52.006;8.424;2024-01-30T08:12:49;16.43;;;7.33;;
76063;SDS011;64762;52.006;8.424;2024-01-30T08:15:14;13.20;;;6.17;;
76063;SDS011;64762;52.006;8.424;2024-01-30T08:17:39;15.40;;;6.50;;
76063;SDS011;64762;52.006;8.424;2024-01-30T08:20:05;16.43;;;5.37;;
76063;SDS011;64762;52.006;8.424;2024-01-30T08:22:31;14.38;;;6.30;;
76063;SDS011;64762;52.006;8.424;2024-01-30T08:24:56;14.18;;;6.10;;
76063;SDS011;64762;52.006;8.424;2024-01-30T08:27:21;16.43;;;6.10;;
76063;SDS011;64762;52.006;8.424;2024-01-30T08:29:47;14.20;;;6.60;;
76063;SDS011;64762;52.006;8.424;2024-01-30T08:32:12;11.93;;;5.97;;
76063;SDS011;64762;52.006;8.424;2024-01-30T08:34:37;13.03;;;6.03;;
76063;SDS011;64762;52.006;8.424;2024-01-30T08:37:04;13.47;;;6.27;;
76063;SDS011;64762;52.006;8.424;2024-01-30T08:39:30;14.82;;;5.97;;
76063;SDS011;64762;52.006;8.424;2024-01-30T08:41:55;13.40;;;6.22;;
76063;SDS011;64762;52.006;8.424;2024-01-30T08:44:21;12.77;;;6.03;;
76063;SDS011;64762;52.006;8.424;2024-01-30T08:46:46;13.27;;;5.60;;
76063;SDS011;64762;52.006;8.424;2024-01-30T08:49:11;12.97;;;6.47;;
76063;SDS011;64762;52.006;8.424;2024-01-30T08:51:40;13.52;;;5.60;;
76063;SDS011;64762;52.006;8.424;2024-01-30T08:54:06;11.95;;;5.43;;
76063;SDS011;64762;52.006;8.424;2024-01-30T08:56:32;10.93;;;5.70;;
76063;SDS011;64762;52.006;8.424;2024-01-30T08:58:58;13.27;;;6.13;;
76063;SDS011;64762;52.006;8.424;2024-01-30T09:01:24;13.88;;;5.93;;
76063;SDS011;64762;52.006;8.424;2024-01-30T09:03:50;13.77;;;5.38;;
76063;SDS011;64762;52.006;8.424;2024-01-30T09:06:15;13.27;;;5.70;;
76063;SDS011;64762;52.006;8.424;2024-01-30T09:08:40;14.50;;;6.47;;
76063;SDS011;64762;52.006;8.424;2024-01-30T09:11:09;11.77;;;5.85;;
76063;SDS011;64762;52.006;8.424;2024-01-30T09:13:37;13.90;;;5.28;;
76063;SDS011;64762;52.006;8.424;2024-01-30T09:16:02;11.48;;;6.20;;
76063;SDS011;64762;52.006;8.424;2024-01-30T09:18:28;15.38;;;6.20;;
76063;SDS011;64762;52.006;8.424;2024-01-30T09:20:53;13.38;;;5.57;;
76063;SDS011;64762;52.006;8.424;2024-01-30T09:23:18;11.53;;;5.17;;
76063;SDS011;64762;52.006;8.424;2024-01-30T09:25:44;16.52;;;5.85;;
76063;SDS011;64762;52.006;8.424;2024-01-30T09:28:09;12.27;;;5.93;;
76063;SDS011;64762;52.006;8.424;2024-01-30T09:30:35;12.33;;;6.03;;
76063;SDS011;64762;52.006;8.424;2024-01-30T09:33:00;12.07;;;5.93;;
76063;SDS011;64762;52.006;8.424;2024-01-30T09:35:25;11.70;;;5.07;;
76063;SDS011;64762;52.006;8.424;2024-01-30T09:37:51;11.73;;;5.53;;
76063;SDS011;64762;52.006;8.424;2024-01-30T09:40:17;12.68;;;6.22;;
76063;SDS011;64762;52.006;8.424;2024-01-30T09:42:44;10.23;;;5.32;;
76063;SDS011;64762;52.006;8.424;2024-01-30T09:45:11;11.90;;;4.90;;
76063;SDS011;64762;52.006;8.424;2024-01-30T09:47:42;13.85;;;5.45;;
76063;SDS011;64762;52.006;8.424;2024-01-30T09:50:10;11.88;;;5.40;;
76063;SDS011;64762;52.006;8.424;2024-01-30T09:52:36;10.85;;;5.50;;
76063;SDS011;64762;52.006;8.424;2024-01-30T09:55:02;14.88;;;5.47;;
76063;SDS011;64762;52.006;8.424;2024-01-30T09:57:27;12.70;;;5.65;;
76063;SDS011;64762;52.006;8.424;2024-01-30T09:59:53;13.23;;;5.63;;
76063;SDS011;64762;52.006;8.424;2024-01-30T10:02:22;13.75;;;5.72;;
76063;SDS011;64762;52.006;8.424;2024-01-30T10:04:48;14.57;;;5.32;;
76063;SDS011;64762;52.006;8.424;2024-01-30T10:07:13;11.88;;;5.40;;
76063;SDS011;64762;52.006;8.424;2024-01-30T10:09:40;11.07;;;5.45;;
76063;SDS011;64762;52.006;8.424;2024-01-30T10:12:06;11.55;;;4.97;;
76063;SDS011;64762;52.006;8.424;2024-01-30T10:14:32;9.77;;;5.13;;
76063;SDS011;64762;52.006;8.424;2024-01-30T10:16:57;12.93;;;5.70;;
76063;SDS011;64762;52.006;8.424;2024-01-30T10:19:23;8.53;;;5.03;;
76063;SDS011;64762;52.006;8.424;2024-01-30T10:21:48;12.57;;;5.60;;
76063;SDS011;64762;52.006;8.424;2024-01-30T10:24:13;10.00;;;4.47;;
76063;SDS011;64762;52.006;8.424;2024-01-30T10:26:39;12.13;;;5.30;;
76063;SDS011;64762;52.006;8.424;2024-01-30T10:29:04;13.37;;;5.27;;
76063;SDS011;64762;52.006;8.424;2024-01-30T10:31:31;9.77;;;5.28;;
76063;SDS011;64762;52.006;8.424;2024-01-30T10:33:56;10.75;;;5.03;;
76063;SDS011;64762;52.006;8.424;2024-01-30T10:36:22;11.80;;;5.18;;
76063;SDS011;64762;52.006;8.424;2024-01-30T10:38:53;13.30;;;5.57;;
76063;SDS011;64762;52.006;8.424;2024-01-30T10:41:22;10.23;;;5.15;;
76063;SDS011;64762;52.006;8.424;2024-01-30T10:43:54;11.07;;;5.43;;
76063;SDS011;64762;52.006;8.424;2024-01-30T10:46:25;10.98;;;5.03;;
76063;SDS011;64762;52.006;8.424;2024-01-30T10:48:56;9.52;;;5.43;;
76063;SDS011;64762;52.006;8.424;2024-01-30T10:51:24;11.70;;;6.22;;
76063;SDS011;64762;52.006;8.424;2024-01-30T10:53:51;13.10;;;5.63;;
76063;SDS011;64762;52.006;8.424;2024-01-30T10:56:18;13.48;;;5.80;;
76063;SDS011;64762;52.006;8.424;2024-01-30T10:58:45;14.27;;;5.63;;
76063;SDS011;64762;52.006;8.424;2024-01-30T11:01:11;12.15;;;5.10;;
76063;SDS011;64762;52.006;8.424;2024-01-30T11:03:37;10.73;;;5.60;;
76063;SDS011;64762;52.006;8.424;2024-01-30T11:06:02;10.02;;;5.57;;
76063;SDS011;64762;52.006;8.424;2024-01-30T11:08:28;14.93;;;6.10;;
76063;SDS011;64762;52.006;8.424;2024-01-30T11:10:56;11.15;;;5.55;;
76063;SDS011;64762;52.006;8.424;2024-01-30T11:13:26;11.57;;;5.38;;
76063;SDS011;64762;52.006;8.424;2024-01-30T11:15:55;10.07;;;5.65;;
76063;SDS011;64762;52.006;8.424;2024-01-30T11:18:26;15.20;;;5.88;;
76063;SDS011;64762;52.006;8.424;2024-01-30T11:20:57;13.35;;;5.05;;
76063;SDS011;64762;52.006;8.424;2024-01-30T11:23:25;12.00;;;5.15;;
76063;SDS011;64762;52.006;8.424;2024-01-30T11:25:52;12.52;;;5.35;;
76063;SDS011;64762;52.006;8.424;2024-01-30T11:28:17;11.10;;;5.65;;
76063;SDS011;64762;52.006;8.424;2024-01-30T11:30:43;12.38;;;6.05;;
76063;SDS011;64762;52.006;8.424;2024-01-30T11:33:09;12.20;;;5.70;;
76063;SDS011;64762;52.006;8.424;2024-01-30T11:35:39;13.27;;;5.43;;
76063;SDS011;64762;52.006;8.424;2024-01-30T11:38:06;12.02;;;5.70;;
76063;SDS011;64762;52.006;8.424;2024-01-30T11:40:32;10.20;;;5.15;;
76063;SDS011;64762;52.006;8.424;2024-01-30T11:42:58;13.07;;;5.47;;
76063;SDS011;64762;52.006;8.424;2024-01-30T11:45:25;10.45;;;5.22;;
76063;SDS011;64762;52.006;8.424;2024-01-30T11:47:54;10.57;;;5.28;;
76063;SDS011;64762;52.006;8.424;2024-01-30T11:50:19;10.52;;;5.47;;
76063;SDS011;64762;52.006;8.424;2024-01-30T11:52:46;12.60;;;5.40;;
76063;SDS011;64762;52.006;8.424;2024-01-30T11:55:13;14.05;;;5.45;;
76063;SDS011;64762;52.006;8.424;2024-01-30T11:57:38;11.30;;;5.57;;
76063;SDS011;64762;52.006;8.424;2024-01-30T12:00:05;12.43;;;5.60;;
76063;SDS011;64762;52.006;8.424;2024-01-30T12:02:38;10.32;;;4.85;;
76063;SDS011;64762;52.006;8.424;2024-01-30T12:05:06;11.13;;;6.00;;
76063;SDS011;64762;52.006;8.424;2024-01-30T12:07:32;11.18;;;5.30;;
76063;SDS011;64762;52.006;8.424;2024-01-30T12:09:59;9.98;;;4.72;;
76063;SDS011;64762;52.006;8.424;2024-01-30T12:12:25;11.93;;;5.13;;
76063;SDS011;64762;52.006;8.424;2024-01-30T12:14:51;10.30;;;5.28;;
76063;SDS011;64762;52.006;8.424;2024-01-30T12:17:23;10.50;;;5.07;;
76063;SDS011;64762;52.006;8.424;2024-01-30T12:20:02;10.20;;;4.78;;
76063;SDS011;64762;52.006;8.424;2024-01-30T12:22:38;9.60;;;5.05;;
76063;SDS011;64762;52.006;8.424;2024-01-30T12:25:05;9.88;;;4.78;;
76063;SDS011;64762;52.006;8.424;2024-01-30T12:27:33;10.10;;;4.93;;
76063;SDS011;64762;52.006;8.424;2024-01-30T12:29:58;13.85;;;5.35;;
76063;SDS011;64762;52.006;8.424;2024-01-30T12:32:24;11.03;;;4.83;;
76063;SDS011;64762;52.006;8.424;2024-01-30T12:34:49;8.97;;;4.53;;
76063;SDS011;64762;52.006;8.424;2024-01-30T12:37:14;10.60;;;4.70;;
76063;SDS011;64762;52.006;8.424;2024-01-30T12:42:09;11.60;;;4.87;;
76063;SDS011;64762;52.006;8.424;2024-01-30T12:44:35;9.07;;;4.00;;
76063;SDS011;64762;52.006;8.424;2024-01-30T12:47:02;15.10;;;4.83;;
76063;SDS011;64762;52.006;8.424;2024-01-30T12:49:34;9.18;;;5.03;;
76063;SDS011;64762;52.006;8.424;2024-01-30T12:51:59;11.77;;;4.90;;
76063;SDS011;64762;52.006;8.424;2024-01-30T12:54:24;12.27;;;4.70;;
76063;SDS011;64762;52.006;8.424;2024-01-30T12:56:50;9.83;;;4.67;;
76063;SDS011;64762;52.006;8.424;2024-01-30T12:59:15;12.37;;;4.80;;
76063;SDS011;64762;52.006;8.424;2024-01-30T13:01:41;17.40;;;6.75;;
76063;SDS011;64762;52.006;8.424;2024-01-30T13:04:06;10.80;;;5.07;;
76063;SDS011;64762;52.006;8.424;2024-01-30T13:06:31;11.50;;;4.53;;
76063;SDS011;64762;52.006;8.424;2024-01-30T13:08:57;9.33;;;4.87;;
76063;SDS011;64762;52.006;8.424;2024-01-30T13:11:22;12.67;;;4.90;;
76063;SDS011;64762;52.006;8.424;2024-01-30T13:13:47;11.65;;;4.60;;
76063;SDS011;64762;52.006;8.424;2024-01-30T13:16:13;9.67;;;4.93;;
76063;SDS011;64762;52.006;8.424;2024-01-30T13:18:38;9.87;;;4.53;;
76063;SDS011;64762;52.006;8.424;2024-01-30T13:21:03;10.37;;;4.93;;
76063;SDS011;64762;52.006;8.424;2024-01-30T13:23:29;17.08;;;5.43;;
76063;SDS011;64762;52.006;8.424;2024-01-30T13:25:54;10.80;;;5.33;;
76063;SDS011;64762;52.006;8.424;2024-01-30T13:28:23;10.27;;;5.78;;
76063;SDS011;64762;52.006;8.424;2024-01-30T13:30:48;13.13;;;5.17;;
76063;SDS011;64762;52.006;8.424;2024-01-30T13:33:13;13.77;;;6.13;;
76063;SDS011;64762;52.006;8.424;2024-01-30T13:35:39;12.80;;;5.33;;
76063;SDS011;64762;52.006;8.424;2024-01-30T13:38:04;12.27;;;5.87;;
76063;SDS011;64762;52.006;8.424;2024-01-30T13:40:29;15.60;;;5.30;;
76063;SDS011;64762;52.006;8.424;2024-01-30T13:42:55;13.83;;;5.73;;
76063;SDS011;64762;52.006;8.424;2024-01-30T13:45:20;14.07;;;5.83;;
76063;SDS011;64762;52.006;8.424;2024-01-30T13:47:45;12.70;;;6.28;;
76063;SDS011;64762;52.006;8.424;2024-01-30T13:50:11;17.77;;;6.13;;
76063;SDS011;64762;52.006;8.424;2024-01-30T13:52:40;13.60;;;5.47;;
76063;SDS011;64762;52.006;8.424;2024-01-30T13:55:05;15.27;;;5.88;;
76063;SDS011;64762;52.006;8.424;2024-01-30T13:57:30;14.40;;;5.27;;
76063;SDS011;64762;52.006;8.424;2024-01-30T14:00:00;12.45;;;5.45;;
76063;SDS011;64762;52.006;8.424;2024-01-30T14:02:25;14.47;;;5.97;;
76063;SDS011;64762;52.006;8.424;2024-01-30T14:04:50;15.93;;;6.40;;
76063;SDS011;64762;52.006;8.424;2024-01-30T14:07:15;11.73;;;6.00;;
76063;SDS011;64762;52.006;8.424;2024-01-30T14:09:43;13.95;;;5.63;;
76063;SDS011;64762;52.006;8.424;2024-01-30T14:12:08;12.52;;;5.68;;
76063;SDS011;64762;52.006;8.424;2024-01-30T14:14:34;11.80;;;5.50;;
76063;SDS011;64762;52.006;8.424;2024-01-30T14:16:59;22.07;;;5.90;;
76063;SDS011;64762;52.006;8.424;2024-01-30T14:19:24;13.52;;;5.47;;
76063;SDS011;64762;52.006;8.424;2024-01-30T14:21:50;13.17;;;5.97;;
76063;SDS011;64762;52.006;8.424;2024-01-30T14:24:15;14.10;;;5.97;;
76063;SDS011;64762;52.006;8.424;2024-01-30T14:26:40;12.03;;;5.90;;
76063;SDS011;64762;52.006;8.424;2024-01-30T14:29:06;14.87;;;5.77;;
76063;SDS011;64762;52.006;8.424;2024-01-30T14:31:31;13.03;;;5.20;;